New Harmony, UT (84757)

8:44 PM MDT on May 22, 2015 (GMT -0600)
Harmony heights 2 | | Change Station
CLOSE
Current Station
Personal Weather Station
Location: New Harmony, UT
Elevation: 5148 ft
Nearby Weather Stations

Elev 5148 ft 37.46 °N, 113.29 °W | Updated 11 minutes ago

Overcast
Overcast
47.5 °F
Feels Like 48 °F
N
1.7
Wind Variable Wind from WNW

Today
High -- | Low -- °F
--% Chance of Precip.
Yesterday
High -- | Low -- °F
Precip. -- in
6:19 AM 8:41 PM
Waxing Crescent, 26% visible
Pressure 29.87 in
Visibility 10.0 miles
Clouds Overcast 5500 ft
Windchill 48 °F
Dew Point 43 °F
Humidity 84%
Rainfall 0.02 in
Snow Depth Not available.
UV 0 out of 12
Pollen 5.20 out of 12
Air Quality Not available.
Flu Activity Sporadic
METAR KCDC 230153Z AUTO 23003KT 10SM OVC055 08/04 A2997 RMK AO2 SLP114 T00780044

More Conditions Fewer Conditions

Pressure 29.87 in
Visibility 10.0 miles
Clouds Overcast 5500 ft
Windchill 48 °F
Dew Point 43 °F
Humidity 84%
Rainfall 0.02 in
Snow Depth Not available.
UV 0 out of 12
Pollen 5.20 out of 12
Air Quality Not available.
Flu Activity Sporadic
METAR KCDC 230153Z AUTO 23003KT 10SM OVC055 08/04 A2997 RMK AO2 SLP114 T00780044

More Conditions Fewer Conditions

10-Day Weather Forecast

Almanac

Astronomy

May. 22, 2015 Rise Set
Actual Time
Civil Twilight
Nautical Twilight
Astronomical Twilight
Moon
Length of Visible Light
Length of Day
Tomorrow will be .
, % of the Moon is Illuminated

Today's Extremes

State Highs State Lows

Community

WunderPhotos

Upload Photos

1,823,371 photos uploaded!

WunderBlogs® & News

Nearby

Air Quality

  Air Quality AQ Index Pollutant
Not available.

Snow Depth

Station Depth Elevation

Earthquake Activity

City Distance Mag. Time & Date
Minimum magnitude displayed is 2.5.

Coastal Water Temperatures

Place Temperature

Stations

Nearby Weather Stations

Station Location Temp. Windchill Dew Point Humidity Wind Precip. Elev Updated Type